Time;durP1;ratioP1;P1;durP2;ratioP2;P2;SDS_P1;SDS_P2;PMS_P1;PMS_P2;Temp;Humidity;BMP_temperature;BMP_pressure;BME280_temperature;BME280_humidity;BME280_pressure;Samples;Min_cycle;Max_cycle;Signal;HPM_P1;HPM_P2
2022/11/22 00:01:01;;;;;;;6.18;4.85;;;2.20;99.90;;;;;;4999862;28;20193;-73
2022/11/22 00:03:26;;;;;;;5.20;4.80;;;2.10;99.90;;;;;;4992253;28;20178;-74
2022/11/22 00:05:52;;;;;;;4.47;4.18;;;2.10;99.90;;;;;;4993177;28;20204;-73
2022/11/22 00:08:17;;;;;;;5.35;4.95;;;2.10;99.90;;;;;;4998501;28;20185;-74
2022/11/22 00:10:43;;;;;;;5.30;4.85;;;2.10;99.90;;;;;;4993079;28;20178;-74
2022/11/22 00:13:09;;;;;;;5.03;4.53;;;2.20;99.90;;;;;;4992318;28;20221;-74
2022/11/22 00:15:34;;;;;;;4.93;4.53;;;2.10;99.90;;;;;;4995566;28;20316;-74
2022/11/22 00:18:00;;;;;;;4.68;4.28;;;2.10;99.90;;;;;;4998460;28;20189;-74
2022/11/22 00:20:26;;;;;;;5.00;4.57;;;2.00;99.90;;;;;;4994954;28;20189;-74
2022/11/22 00:22:52;;;;;;;4.95;4.47;;;2.00;99.90;;;;;;4998455;28;20174;-74
2022/11/22 00:25:17;;;;;;;5.55;5.05;;;1.90;99.90;;;;;;4995400;28;20259;-74
2022/11/22 00:27:43;;;;;;;5.13;4.72;;;1.90;99.90;;;;;;4998473;28;20178;-74
2022/11/22 00:30:09;;;;;;;4.70;4.32;;;1.90;99.90;;;;;;5002682;28;20181;-74
2022/11/22 00:32:35;;;;;;;5.38;4.93;;;2.00;99.90;;;;;;4993223;28;20212;-74
2022/11/22 00:35:01;;;;;;;6.10;4.38;;;2.10;99.90;;;;;;4992097;28;20746;-74
2022/11/22 00:37:26;;;;;;;5.35;4.93;;;2.10;99.90;;;;;;4992501;28;20185;-74
2022/11/22 00:39:52;;;;;;;5.60;5.05;;;2.00;99.90;;;;;;4992600;28;20178;-74
2022/11/22 00:42:17;;;;;;;6.15;4.70;;;1.90;99.90;;;;;;4987647;28;20198;-74
2022/11/22 00:44:43;;;;;;;5.05;4.65;;;1.90;99.90;;;;;;4995167;28;20201;-74
2022/11/22 00:47:09;;;;;;;6.35;5.15;;;1.90;99.90;;;;;;5003112;28;20235;-73
2022/11/22 00:49:34;;;;;;;5.70;5.22;;;1.90;99.90;;;;;;4992128;28;20645;-73
2022/11/22 00:52:00;;;;;;;5.25;4.80;;;1.90;99.90;;;;;;4991486;28;20669;-74
2022/11/22 00:54:25;;;;;;;6.15;5.47;;;1.90;99.90;;;;;;4994066;28;20213;-73
2022/11/22 00:56:51;;;;;;;5.35;4.95;;;1.80;99.90;;;;;;4992426;28;20542;-74
2022/11/22 00:59:17;;;;;;;6.40;5.60;;;1.80;99.90;;;;;;4983399;28;20188;-74
2022/11/22 01:01:42;;;;;;;5.57;5.07;;;1.80;99.90;;;;;;5001233;28;20176;-73
2022/11/22 01:04:08;;;;;;;4.72;4.28;;;1.80;99.90;;;;;;4991517;28;20291;-73
2022/11/22 01:06:34;;;;;;;5.57;5.05;;;1.80;99.90;;;;;;4991776;28;20184;-73
2022/11/22 01:08:59;;;;;;;5.35;4.85;;;1.90;99.90;;;;;;4986735;28;20533;-73
2022/11/22 01:11:25;;;;;;;5.18;4.78;;;1.90;99.90;;;;;;4991966;28;20205;-72
2022/11/22 01:13:51;;;;;;;5.18;4.78;;;1.90;99.90;;;;;;4991823;28;20233;-73
2022/11/22 01:16:17;;;;;;;6.30;5.00;;;2.00;99.90;;;;;;4996408;28;20221;-74
2022/11/22 01:18:43;;;;;;;5.80;5.30;;;2.00;99.90;;;;;;4989658;28;20192;-74
2022/11/22 01:21:09;;;;;;;6.95;5.93;;;2.00;99.90;;;;;;4993760;28;20593;-74
2022/11/22 01:23:35;;;;;;;5.97;5.03;;;1.90;99.90;;;;;;4987001;28;20178;-74
2022/11/22 01:26:01;;;;;;;5.30;4.80;;;2.00;99.90;;;;;;4994467;28;20205;-74
2022/11/22 01:28:26;;;;;;;6.10;5.55;;;1.90;99.90;;;;;;4991951;28;20243;-74
2022/11/22 01:30:53;;;;;;;6.47;4.93;;;1.90;99.90;;;;;;4992182;28;20181;-74
2022/11/22 01:33:20;;;;;;;5.05;4.60;;;2.00;99.90;;;;;;4998944;28;20224;-74
2022/11/22 01:35:45;;;;;;;6.35;5.75;;;2.00;99.90;;;;;;4998261;28;20219;-74
2022/11/22 01:38:11;;;;;;;5.38;4.88;;;1.90;99.90;;;;;;4990642;28;20227;-74
2022/11/22 01:40:37;;;;;;;7.45;5.13;;;1.90;99.90;;;;;;4991052;28;20182;-74
2022/11/22 01:43:03;;;;;;;4.90;4.60;;;2.00;99.90;;;;;;4993408;28;20193;-74
2022/11/22 01:45:29;;;;;;;5.88;5.28;;;2.00;99.90;;;;;;4987022;28;20210;-73
2022/11/22 01:48:09;;;;;;;5.88;5.35;;;1.90;99.90;;;;;;4992683;28;20654;-73
2022/11/22 01:50:36;;;;;;;7.60;5.85;;;1.90;99.90;;;;;;4997968;28;20885;-73
2022/11/22 01:53:35;;;;;;;5.60;4.90;;;1.90;99.90;;;;;;4999491;28;20707;-74
2022/11/22 01:56:06;;;;;;;7.22;5.28;;;1.80;99.90;;;;;;4989900;28;20245;-72
2022/11/22 01:58:35;;;;;;;5.85;5.25;;;1.80;99.90;;;;;;4987721;28;20178;-73
2022/11/22 02:01:01;;;;;;;6.18;5.68;;;1.70;99.90;;;;;;4999469;28;20178;-73
2022/11/22 02:03:30;;;;;;;6.15;5.55;;;1.60;99.90;;;;;;4994991;28;20186;-73
2022/11/22 02:05:56;;;;;;;6.93;5.70;;;1.50;99.90;;;;;;4999699;28;20688;-73
2022/11/22 02:08:43;;;;;;;6.63;6.03;;;1.40;99.90;;;;;;5000752;28;20194;-73
2022/11/22 02:11:11;;;;;;;6.78;6.13;;;1.30;99.90;;;;;;4990382;28;20542;-73
2022/11/22 02:13:40;;;;;;;10.30;6.18;;;1.40;99.90;;;;;;4994696;28;20190;-73
2022/11/22 02:16:06;;;;;;;5.72;5.22;;;1.30;99.90;;;;;;4995146;28;20201;-73
2022/11/22 02:18:34;;;;;;;7.10;6.28;;;1.40;99.90;;;;;;4993963;28;20188;-73
2022/11/22 02:21:01;;;;;;;6.05;5.55;;;1.40;99.90;;;;;;4994127;28;20182;-73
2022/11/22 02:23:38;;;;;;;6.53;5.32;;;1.50;99.90;;;;;;5005581;28;20189;-73
2022/11/22 02:26:04;;;;;;;7.15;5.85;;;1.40;99.90;;;;;;4991093;28;20674;-73
2022/11/22 02:28:34;;;;;;;5.90;5.40;;;1.30;99.90;;;;;;4994308;28;20194;-73
2022/11/22 02:31:00;;;;;;;6.20;5.60;;;1.30;99.90;;;;;;4996806;28;20241;-74
2022/11/22 02:33:25;;;;;;;5.93;5.35;;;1.30;99.90;;;;;;4987178;28;20209;-73
2022/11/22 02:35:51;;;;;;;6.22;5.57;;;1.40;99.90;;;;;;4985417;28;20221;-73
2022/11/22 02:38:23;;;;;;;6.43;5.53;;;1.40;99.90;;;;;;4981053;28;20215;-74
2022/11/22 02:40:57;;;;;;;6.57;5.85;;;1.30;99.90;;;;;;4981299;28;20181;-74
2022/11/22 02:43:28;;;;;;;5.55;5.03;;;1.30;99.90;;;;;;4984090;28;20289;-74
2022/11/22 02:45:54;;;;;;;7.60;5.30;;;1.30;99.90;;;;;;4982681;28;20273;-74
2022/11/22 02:48:20;;;;;;;5.78;5.28;;;1.30;99.90;;;;;;4985664;28;20186;-74
2022/11/22 02:50:46;;;;;;;6.20;5.60;;;1.30;99.90;;;;;;4980827;28;20664;-72
2022/11/22 02:53:12;;;;;;;6.60;6.00;;;1.30;99.90;;;;;;4982821;28;20269;-73
2022/11/22 02:55:37;;;;;;;5.80;5.30;;;1.30;99.90;;;;;;4980820;28;20225;-75
2022/11/22 02:58:04;;;;;;;6.93;6.00;;;1.40;99.90;;;;;;4988325;28;20178;-74
2022/11/22 03:00:31;;;;;;;6.57;5.95;;;1.50;99.90;;;;;;4984226;28;20178;-74
2022/11/22 03:02:57;;;;;;;5.57;5.07;;;1.50;99.90;;;;;;4982045;28;20189;-74
2022/11/22 03:05:22;;;;;;;6.57;5.72;;;1.60;99.90;;;;;;4980435;28;20579;-73
2022/11/22 03:07:49;;;;;;;6.88;5.07;;;1.60;99.90;;;;;;4982112;28;20197;-73
2022/11/22 03:10:15;;;;;;;5.65;5.25;;;1.60;99.90;;;;;;4977872;28;20191;-73
2022/11/22 03:12:40;;;;;;;7.30;5.50;;;1.60;99.90;;;;;;4977536;28;20247;-72
2022/11/22 03:15:06;;;;;;;7.93;5.13;;;1.60;99.90;;;;;;4986345;28;20210;-73
2022/11/22 03:17:32;;;;;;;6.07;5.50;;;1.70;99.90;;;;;;4982391;28;20265;-73
2022/11/22 03:19:58;;;;;;;5.38;4.88;;;1.70;99.90;;;;;;4981516;28;20188;-73
2022/11/22 03:22:23;;;;;;;7.45;6.72;;;1.70;99.90;;;;;;4984126;28;20265;-74
2022/11/22 03:24:49;;;;;;;5.70;5.20;;;1.80;99.90;;;;;;4985941;28;20216;-74
2022/11/22 03:27:15;;;;;;;6.25;5.50;;;1.80;99.90;;;;;;4980088;28;20190;-73
2022/11/22 03:29:40;;;;;;;5.13;4.70;;;1.90;99.90;;;;;;4983188;28;20179;-74
2022/11/22 03:32:06;;;;;;;5.03;4.63;;;2.00;99.90;;;;;;4980090;28;20616;-74
2022/11/22 03:34:31;;;;;;;6.43;5.00;;;2.10;99.90;;;;;;4978861;28;20202;-74
2022/11/22 03:36:57;;;;;;;5.00;4.40;;;2.20;99.90;;;;;;4978310;28;20241;-74
2022/11/22 03:39:23;;;;;;;5.07;4.65;;;2.30;99.90;;;;;;4980634;28;20478;-74
2022/11/22 03:41:48;;;;;;;5.00;4.60;;;2.20;99.90;;;;;;4980489;28;20273;-73
2022/11/22 03:44:14;;;;;;;4.47;4.18;;;2.20;99.90;;;;;;4980570;28;20566;-73
2022/11/22 03:46:39;;;;;;;8.52;4.30;;;2.20;99.90;;;;;;4982522;28;20178;-73
2022/11/22 03:49:05;;;;;;;5.13;4.70;;;2.30;99.90;;;;;;4982482;28;20239;-72
2022/11/22 03:51:30;;;;;;;5.00;4.60;;;2.40;99.90;;;;;;4986662;28;20185;-72
2022/11/22 03:53:57;;;;;;;4.82;4.43;;;2.30;99.90;;;;;;4982805;28;20270;-74
2022/11/22 03:56:22;;;;;;;4.85;4.55;;;2.30;99.90;;;;;;4982943;28;20206;-74
2022/11/22 03:58:48;;;;;;;5.43;4.28;;;2.30;99.90;;;;;;4980676;28;20644;-74
2022/11/22 04:01:13;;;;;;;5.25;4.75;;;2.40;99.90;;;;;;4983898;28;20286;-74
2022/11/22 04:03:39;;;;;;;5.18;4.78;;;2.40;99.90;;;;;;4982840;28;20243;-74
2022/11/22 04:06:05;;;;;;;5.32;4.82;;;2.50;99.90;;;;;;4985547;28;20186;-75
2022/11/22 04:08:30;;;;;;;5.28;4.70;;;2.40;99.90;;;;;;4983457;28;20175;-74
2022/11/22 04:10:56;;;;;;;4.82;4.43;;;2.50;99.90;;;;;;4980424;28;20193;-74
2022/11/22 04:15:05;;;;;;;5.15;4.50;;;2.50;99.90;;;;;;4981915;28;20178;-74
2022/11/22 04:16:07;;;;;;;4.88;4.47;;;2.50;99.90;;;;;;4980789;28;20245;-74
2022/11/22 04:18:32;;;;;;;6.07;5.57;;;2.50;99.90;;;;;;4983199;28;20677;-73
2022/11/22 04:23:42;;;;;;;5.00;4.70;;;2.50;99.90;;;;;;4981345;28;20730;-74
2022/11/22 04:26:08;;;;;;;5.30;4.70;;;2.60;99.90;;;;;;4984601;28;20194;-74
2022/11/22 04:28:33;;;;;;;5.28;4.88;;;2.70;99.90;;;;;;4980854;28;20209;-74
2022/11/22 04:33:43;;;;;;;6.90;5.60;;;2.60;99.90;;;;;;4980751;28;20224;-73
2022/11/22 04:36:08;;;;;;;6.40;5.90;;;2.50;99.90;;;;;;4978973;28;20250;-73
2022/11/22 04:38:34;;;;;;;5.30;4.90;;;2.40;99.90;;;;;;4982224;28;20189;-74
2022/11/22 04:40:59;;;;;;;5.60;5.10;;;2.40;99.90;;;;;;4980975;28;20339;-75
2022/11/22 04:46:13;;;;;;;6.07;5.47;;;2.30;99.90;;;;;;4982150;28;20672;-74
2022/11/22 04:48:39;;;;;;;6.05;5.45;;;2.30;99.90;;;;;;4985213;28;20190;-74
2022/11/22 04:53:50;;;;;;;5.65;5.18;;;2.30;99.90;;;;;;4980054;28;20248;-73
2022/11/22 04:56:16;;;;;;;7.10;5.45;;;2.30;99.90;;;;;;4987543;28;20610;-74
2022/11/22 04:58:42;;;;;;;6.00;5.50;;;2.20;99.90;;;;;;4986780;28;20181;-74
2022/11/22 05:01:10;;;;;;;6.07;5.40;;;2.30;99.90;;;;;;4992233;28;20190;-72
2022/11/22 05:03:36;;;;;;;5.90;5.20;;;2.30;99.90;;;;;;4983428;28;20181;-73
2022/11/22 05:06:03;;;;;;;5.80;5.03;;;2.30;99.90;;;;;;4980976;28;20198;-73
2022/11/22 05:08:29;;;;;;;5.65;5.18;;;2.30;99.90;;;;;;4981642;28;20273;-73
2022/11/22 05:10:58;;;;;;;5.95;5.45;;;2.40;99.90;;;;;;4981107;28;20210;-74
2022/11/22 05:13:27;;;;;;;6.28;5.07;;;2.40;99.90;;;;;;4976923;28;20190;-73
2022/11/22 05:15:54;;;;;;;6.28;5.65;;;2.40;99.90;;;;;;4979198;28;20209;-74
2022/11/22 05:18:21;;;;;;;6.13;5.15;;;2.50;99.90;;;;;;4980779;28;20181;-74
2022/11/22 05:20:47;;;;;;;6.05;5.50;;;2.50;99.90;;;;;;4977760;28;20633;-74
2022/11/22 05:25:58;;;;;;;6.03;5.53;;;2.40;99.90;;;;;;4978496;28;20303;-73
2022/11/22 05:28:30;;;;;;;5.80;5.30;;;2.40;99.90;;;;;;4977327;28;20254;-74
2022/11/22 05:30:56;;;;;;;5.88;5.28;;;2.60;99.90;;;;;;4979194;28;20291;-73
2022/11/22 05:33:22;;;;;;;5.75;5.20;;;2.50;99.90;;;;;;4979369;28;20266;-74
2022/11/22 05:35:48;;;;;;;5.72;5.22;;;2.40;99.90;;;;;;4978737;28;20198;-74
2022/11/22 05:38:13;;;;;;;6.28;5.78;;;2.30;99.90;;;;;;4978457;28;20550;-73
2022/11/22 05:40:39;;;;;;;5.80;5.30;;;2.30;99.90;;;;;;4984151;28;20620;-73
2022/11/22 05:43:04;;;;;;;5.88;5.38;;;2.30;99.90;;;;;;4985079;28;20194;-74
2022/11/22 05:45:30;;;;;;;5.97;5.47;;;2.30;99.90;;;;;;4986702;28;20200;-73
2022/11/22 05:47:56;;;;;;;6.25;5.70;;;2.40;99.90;;;;;;4982262;28;20186;-74
2022/11/22 05:50:22;;;;;;;7.18;5.97;;;2.40;99.90;;;;;;4978483;28;20209;-74
2022/11/22 05:52:47;;;;;;;6.85;6.15;;;2.40;99.90;;;;;;4982873;28;20202;-74
2022/11/22 05:55:13;;;;;;;6.38;5.82;;;2.40;99.90;;;;;;4983724;28;20209;-74
2022/11/22 05:57:38;;;;;;;5.63;4.90;;;2.30;99.90;;;;;;4986290;28;20943;-75
2022/11/22 06:00:05;;;;;;;5.93;5.53;;;2.30;99.90;;;;;;4980538;28;20182;-75
2022/11/22 06:02:31;;;;;;;6.63;6.03;;;2.30;99.90;;;;;;4981809;28;20190;-75
2022/11/22 06:04:56;;;;;;;7.22;5.38;;;2.30;99.90;;;;;;4978664;28;20606;-74
2022/11/22 06:07:22;;;;;;;6.18;5.68;;;2.30;99.90;;;;;;4979532;28;20192;-74
2022/11/22 06:09:48;;;;;;;7.18;5.60;;;2.20;99.90;;;;;;4980714;28;20182;-74
2022/11/22 06:12:14;;;;;;;6.55;5.95;;;2.30;99.90;;;;;;4981117;28;20214;-75
2022/11/22 06:14:40;;;;;;;6.78;6.18;;;2.50;99.90;;;;;;4983284;28;20197;-74
2022/11/22 06:17:05;;;;;;;6.97;6.28;;;2.60;99.90;;;;;;4980388;28;20183;-76
2022/11/22 06:19:31;;;;;;;7.82;7.10;;;2.60;99.90;;;;;;4997896;28;20192;-75
2022/11/22 06:21:57;;;;;;;9.98;6.85;;;2.60;99.90;;;;;;4988434;28;20646;-75
2022/11/22 06:24:22;;;;;;;8.43;6.78;;;2.40;99.90;;;;;;4978551;28;20245;-74
2022/11/22 06:26:48;;;;;;;6.57;5.97;;;2.50;99.90;;;;;;4979542;28;20278;-74
2022/11/22 06:29:13;;;;;;;7.28;6.28;;;2.50;99.90;;;;;;4974654;28;20193;-74
2022/11/22 06:31:39;;;;;;;6.25;5.65;;;2.60;99.90;;;;;;4977811;28;20178;-74
2022/11/22 06:34:05;;;;;;;9.05;7.13;;;2.60;99.90;;;;;;4983434;28;20206;-73
2022/11/22 06:36:32;;;;;;;6.43;5.85;;;2.50;99.90;;;;;;4980605;28;20206;-74
2022/11/22 06:38:59;;;;;;;6.50;5.90;;;2.50;99.90;;;;;;4984734;28;20367;-74
2022/11/22 06:41:27;;;;;;;6.95;6.35;;;2.40;99.90;;;;;;4983761;28;20186;-75
2022/11/22 06:43:56;;;;;;;7.03;6.40;;;2.50;99.90;;;;;;4985985;28;20206;-75
2022/11/22 06:46:23;;;;;;;9.95;7.82;;;2.40;99.90;;;;;;4982879;28;20248;-74
2022/11/22 06:48:49;;;;;;;7.25;6.50;;;2.30;99.90;;;;;;4983744;28;20839;-74
2022/11/22 06:51:26;;;;;;;7.32;6.72;;;2.30;99.90;;;;;;4982933;28;20187;-74
2022/11/22 06:53:55;;;;;;;7.70;6.82;;;2.30;99.90;;;;;;4981655;28;20704;-74
2022/11/22 06:56:39;;;;;;;7.80;7.10;;;2.40;99.90;;;;;;4982078;28;20669;-75
2022/11/22 06:59:06;;;;;;;7.55;6.82;;;2.50;99.90;;;;;;4983778;28;20170;-74
2022/11/22 07:01:33;;;;;;;8.10;7.13;;;2.60;99.90;;;;;;4986051;28;20245;-73
2022/11/22 07:04:00;;;;;;;7.22;6.53;;;2.70;99.90;;;;;;4984345;28;20590;-74
2022/11/22 07:06:28;;;;;;;7.22;6.57;;;2.70;99.90;;;;;;4983438;28;20186;-74
2022/11/22 07:08:54;;;;;;;7.63;6.93;;;2.80;99.90;;;;;;4982693;28;20557;-74
2022/11/22 07:11:22;;;;;;;8.95;7.57;;;2.80;99.90;;;;;;4984668;28;20189;-75
2022/11/22 07:13:49;;;;;;;7.55;6.80;;;2.80;99.90;;;;;;4983311;28;20193;-74
2022/11/22 07:16:17;;;;;;;7.50;6.80;;;2.90;99.90;;;;;;4980920;28;20205;-73
2022/11/22 07:18:43;;;;;;;7.07;6.15;;;2.90;99.90;;;;;;4988503;28;20181;-73
2022/11/22 07:21:14;;;;;;;6.65;5.93;;;2.90;99.90;;;;;;4993242;28;20730;-73
2022/11/22 07:23:41;;;;;;;7.50;6.60;;;3.00;99.90;;;;;;4979845;28;20209;-74
2022/11/22 07:26:07;;;;;;;6.72;6.13;;;3.00;99.90;;;;;;4977939;28;20190;-73
2022/11/22 07:28:33;;;;;;;8.00;6.43;;;3.10;99.90;;;;;;4982944;28;20178;-75
2022/11/22 07:31:00;;;;;;;8.95;6.30;;;3.10;99.90;;;;;;4982419;28;20196;-75
2022/11/22 07:33:26;;;;;;;7.35;6.65;;;3.20;99.90;;;;;;4988864;28;20177;-76
2022/11/22 07:35:51;;;;;;;6.75;6.13;;;3.10;99.90;;;;;;5001333;28;20211;-76
2022/11/22 07:38:17;;;;;;;7.82;6.75;;;3.20;99.90;;;;;;4984331;28;20218;-76
2022/11/22 07:40:43;;;;;;;7.32;6.38;;;3.30;99.90;;;;;;4987403;28;20213;-74
2022/11/22 07:43:08;;;;;;;7.90;7.05;;;3.50;99.90;;;;;;4993956;28;20189;-75
2022/11/22 07:45:34;;;;;;;6.70;6.18;;;3.60;99.90;;;;;;4990616;28;20740;-78
2022/11/22 07:48:00;;;;;;;6.78;6.28;;;3.50;99.90;;;;;;4993105;28;20178;-78
2022/11/22 07:50:27;;;;;;;6.35;5.82;;;3.50;99.90;;;;;;4995757;28;20212;-78
2022/11/22 07:52:56;;;;;;;6.80;6.20;;;3.60;99.90;;;;;;4989408;28;20175;-78
2022/11/22 07:55:24;;;;;;;8.05;6.97;;;3.70;99.90;;;;;;4993721;28;20202;-78
2022/11/22 07:57:51;;;;;;;7.47;6.18;;;3.60;99.90;;;;;;4986927;28;20205;-75
2022/11/22 08:00:17;;;;;;;6.78;6.13;;;3.70;99.90;;;;;;4982288;28;20728;-76
2022/11/22 08:02:43;;;;;;;7.22;6.55;;;3.80;99.90;;;;;;4988819;28;20186;-76
2022/11/22 08:05:09;;;;;;;6.88;6.28;;;3.90;99.90;;;;;;4985417;28;20202;-77
2022/11/22 08:07:34;;;;;;;6.65;6.05;;;4.00;99.90;;;;;;4982782;28;20197;-74
2022/11/22 08:10:00;;;;;;;7.57;6.10;;;4.10;99.90;;;;;;4990913;28;20641;-74
2022/11/22 08:12:26;;;;;;;8.00;7.13;;;4.20;99.90;;;;;;4999982;28;20189;-75
2022/11/22 08:14:51;;;;;;;7.13;6.45;;;4.30;99.90;;;;;;4989456;28;20246;-75
2022/11/22 08:17:17;;;;;;;7.35;6.65;;;4.50;99.90;;;;;;4983115;28;20202;-74
2022/11/22 08:19:43;;;;;;;8.25;6.15;;;4.70;99.90;;;;;;4985500;28;20202;-73
2022/11/22 08:22:08;;;;;;;7.40;6.75;;;4.90;99.90;;;;;;4982845;28;20257;-75
2022/11/22 08:24:34;;;;;;;6.80;6.10;;;5.10;99.90;;;;;;4979786;28;20201;-74
2022/11/22 08:26:59;;;;;;;6.40;5.82;;;5.20;99.90;;;;;;4992615;28;20661;-74
2022/11/22 08:29:25;;;;;;;6.15;5.55;;;5.40;99.90;;;;;;4992482;28;20182;-73
2022/11/22 08:31:51;;;;;;;5.40;4.90;;;5.70;99.90;;;;;;4990004;28;20178;-74
2022/11/22 08:34:16;;;;;;;6.50;5.90;;;6.00;99.90;;;;;;4983765;28;20242;-73
2022/11/22 08:36:42;;;;;;;6.45;5.93;;;6.20;99.90;;;;;;4985937;28;20213;-72
2022/11/22 08:39:07;;;;;;;6.15;5.65;;;6.40;99.90;;;;;;4981151;28;20201;-72
2022/11/22 08:41:33;;;;;;;7.25;5.60;;;6.40;99.90;;;;;;4987997;28;20210;-73
2022/11/22 08:43:59;;;;;;;6.70;5.90;;;6.40;99.90;;;;;;4981708;28;20224;-73
2022/11/22 08:46:24;;;;;;;5.95;5.45;;;6.10;99.90;;;;;;4989868;28;20668;-73
2022/11/22 08:48:52;;;;;;;6.00;5.50;;;6.00;99.90;;;;;;4993371;28;20186;-73
2022/11/22 08:51:18;;;;;;;6.68;6.07;;;6.00;99.90;;;;;;4988479;28;20604;-74
2022/11/22 08:53:44;;;;;;;6.78;6.18;;;6.20;99.90;;;;;;4994408;28;20181;-71
2022/11/22 08:56:12;;;;;;;6.40;5.78;;;6.10;99.90;;;;;;4994484;28;20244;-72
2022/11/22 08:58:37;;;;;;;6.40;5.80;;;6.20;99.90;;;;;;4984695;28;20190;-71
2022/11/22 09:01:08;;;;;;;6.68;6.03;;;6.10;99.90;;;;;;4983552;28;20175;-71
2022/11/22 09:03:34;;;;;;;6.47;5.97;;;6.00;99.90;;;;;;4979516;28;20304;-72
2022/11/22 09:06:09;;;;;;;6.03;5.47;;;5.90;99.90;;;;;;4985390;28;20719;-72
2022/11/22 09:08:36;;;;;;;6.57;6.00;;;5.90;99.90;;;;;;4981885;28;20599;-73
2022/11/22 09:11:13;;;;;;;6.95;5.82;;;5.80;99.90;;;;;;4981962;28;20182;-72
2022/11/22 09:13:39;;;;;;;6.32;5.72;;;5.70;99.90;;;;;;4980962;28;20184;-72
2022/11/22 09:16:11;;;;;;;6.25;5.65;;;5.50;99.90;;;;;;4981184;28;20205;-72
2022/11/22 09:18:37;;;;;;;6.60;6.10;;;5.60;99.90;;;;;;4982263;28;20190;-72
2022/11/22 09:21:08;;;;;;;6.70;6.10;;;5.60;99.90;;;;;;4982104;28;20668;-72
2022/11/22 09:23:35;;;;;;;6.68;6.07;;;5.50;99.90;;;;;;4983497;28;20193;-73
2022/11/22 09:26:06;;;;;;;6.72;6.13;;;5.40;99.90;;;;;;4981444;28;20228;-72
2022/11/22 09:28:33;;;;;;;8.73;6.93;;;5.40;99.90;;;;;;4981736;28;20648;-72
2022/11/22 09:31:07;;;;;;;7.25;6.55;;;5.30;99.90;;;;;;4983627;28;20186;-73
2022/11/22 09:33:34;;;;;;;6.57;6.00;;;5.40;99.90;;;;;;4996490;28;20186;-73
2022/11/22 09:36:02;;;;;;;7.75;6.95;;;5.40;99.90;;;;;;4983844;28;20295;-73
2022/11/22 09:38:29;;;;;;;8.07;6.30;;;5.40;99.90;;;;;;4983982;28;20265;-72
2022/11/22 09:40:56;;;;;;;8.40;6.60;;;5.30;99.90;;;;;;4981432;28;20182;-71
2022/11/22 09:43:35;;;;;;;7.53;6.93;;;5.30;99.90;;;;;;4988322;28;20220;-71
2022/11/22 09:46:10;;;;;;;7.07;5.90;;;5.60;99.90;;;;;;4976240;28;20205;-74
2022/11/22 09:48:57;;;;;;;7.10;6.18;;;5.80;99.90;;;;;;4987865;28;20187;-73
2022/11/22 09:51:38;;;;;;;7.57;6.28;;;5.90;99.90;;;;;;4988001;28;20182;-72
2022/11/22 09:54:09;;;;;;;6.63;6.03;;;5.90;99.90;;;;;;4989071;28;20202;-71
2022/11/22 09:56:36;;;;;;;7.47;6.78;;;6.10;99.90;;;;;;4981411;28;20234;-72
2022/11/22 09:59:12;;;;;;;8.52;7.28;;;6.20;99.90;;;;;;4980913;28;20186;-72
2022/11/22 10:01:42;;;;;;;6.55;6.05;;;6.40;99.90;;;;;;4980635;28;20902;-71
2022/11/22 10:04:33;;;;;;;6.35;5.75;;;6.80;99.90;;;;;;4982564;28;20272;-72
2022/11/22 10:07:04;;;;;;;6.65;5.97;;;7.10;99.90;;;;;;4989351;28;20228;-72
2022/11/22 10:10:01;;;;;;;6.13;5.53;;;7.40;99.90;;;;;;5000215;28;20174;-72
2022/11/22 10:12:51;;;;;;;6.80;6.20;;;7.60;99.90;;;;;;4985969;28;20209;-72
2022/11/22 10:15:20;;;;;;;6.57;6.07;;;7.80;99.90;;;;;;4994369;28;20214;-72
2022/11/22 10:18:23;;;;;;;6.45;5.55;;;8.10;99.90;;;;;;4992618;28;20221;-72
2022/11/22 10:20:49;;;;;;;6.28;5.28;;;8.20;99.90;;;;;;4991347;28;20185;-72
2022/11/22 10:23:24;;;;;;;5.25;4.80;;;8.20;99.90;;;;;;4999135;28;20763;-72
2022/11/22 10:25:58;;;;;;;5.53;5.03;;;8.30;99.90;;;;;;4999178;28;20772;-72
2022/11/22 10:28:38;;;;;;;6.43;5.90;;;8.40;99.90;;;;;;4986301;28;20173;-72
2022/11/22 10:31:08;;;;;;;5.45;4.95;;;8.60;99.90;;;;;;4986638;28;20221;-73
2022/11/22 10:33:56;;;;;;;6.97;6.28;;;8.70;99.90;;;;;;4983557;28;20227;-73
2022/11/22 10:36:53;;;;;;;6.53;5.93;;;8.70;99.90;;;;;;4989699;28;20620;-75
2022/11/22 10:39:30;;;;;;;5.60;5.18;;;8.90;99.90;;;;;;4989029;28;20325;-75
2022/11/22 10:42:14;;;;;;;6.13;5.07;;;9.40;99.90;;;;;;4999033;28;20173;-74
2022/11/22 10:45:01;;;;;;;6.40;5.85;;;9.90;99.90;;;;;;4988247;28;20194;-72
2022/11/22 10:47:48;;;;;;;7.43;5.43;;;10.40;99.90;;;;;;4988179;28;20205;-71
2022/11/22 10:50:13;;;;;;;5.95;5.45;;;10.80;99.90;;;;;;4984908;28;20187;-73
2022/11/22 10:52:39;;;;;;;5.38;4.88;;;10.80;99.90;;;;;;4987011;28;20193;-73
2022/11/22 10:55:25;;;;;;;5.80;5.40;;;10.60;99.90;;;;;;4985884;28;20241;-79
2022/11/22 10:58:07;;;;;;;5.95;5.45;;;10.10;99.90;;;;;;4990227;28;20614;-75
2022/11/22 11:00:38;;;;;;;7.05;6.45;;;9.90;99.90;;;;;;4992844;28;20253;-74
2022/11/22 11:03:04;;;;;;;6.13;5.72;;;9.70;99.90;;;;;;4991915;28;20649;-75
2022/11/22 11:05:41;;;;;;;5.93;5.43;;;9.60;99.90;;;;;;4991454;28;20209;-73
2022/11/22 11:08:13;;;;;;;6.28;5.65;;;9.50;99.90;;;;;;4993405;28;20578;-74
2022/11/22 11:10:40;;;;;;;6.43;5.82;;;9.30;99.90;;;;;;4997219;28;20181;-75
2022/11/22 11:13:15;;;;;;;6.32;5.82;;;9.30;99.90;;;;;;5005293;28;20539;-74
2022/11/22 11:15:49;;;;;;;6.75;5.50;;;9.30;99.90;;;;;;4991258;28;20197;-75
2022/11/22 11:18:24;;;;;;;6.53;6.03;;;9.30;99.90;;;;;;4995328;28;20859;-74
2022/11/22 11:20:51;;;;;;;8.13;6.40;;;9.30;99.90;;;;;;4994305;28;20272;-74
2022/11/22 11:23:17;;;;;;;6.10;5.60;;;9.40;99.90;;;;;;4993116;28;20663;-75
2022/11/22 11:25:44;;;;;;;6.65;6.05;;;9.40;99.90;;;;;;4990990;28;20213;-73
2022/11/22 11:28:26;;;;;;;7.75;6.00;;;9.30;99.90;;;;;;4986795;28;20265;-73
2022/11/22 11:31:09;;;;;;;6.10;5.53;;;9.10;99.90;;;;;;4993074;28;20182;-73
2022/11/22 11:33:37;;;;;;;7.28;5.82;;;9.10;99.90;;;;;;4992410;28;20587;-73
2022/11/22 11:36:09;;;;;;;6.25;5.75;;;9.30;99.90;;;;;;4988319;28;20209;-73
2022/11/22 11:38:36;;;;;;;6.45;5.95;;;9.30;99.90;;;;;;5006225;28;20206;-73
2022/11/22 11:41:29;;;;;;;6.75;5.97;;;9.40;99.90;;;;;;4993667;28;20640;-74
2022/11/22 11:44:00;;;;;;;6.47;5.88;;;9.50;99.90;;;;;;4985627;28;20201;-73
2022/11/22 11:46:27;;;;;;;6.70;6.00;;;9.40;99.90;;;;;;4989442;28;20174;-73
2022/11/22 11:49:09;;;;;;;6.70;6.07;;;9.40;99.90;;;;;;4997003;28;20271;-73
2022/11/22 11:51:46;;;;;;;8.93;6.28;;;9.40;99.90;;;;;;4987594;28;20174;-73
2022/11/22 11:54:19;;;;;;;6.18;5.70;;;9.60;99.90;;;;;;4990611;28;20705;-73
2022/11/22 11:56:44;;;;;;;5.88;5.30;;;10.00;99.90;;;;;;4995810;28;20652;-74
2022/11/22 11:59:42;;;;;;;6.32;5.82;;;10.40;99.90;;;;;;4986907;28;20206;-73
2022/11/22 12:02:13;;;;;;;6.28;5.78;;;10.70;99.90;;;;;;4980264;28;20301;-73
2022/11/22 12:05:01;;;;;;;6.30;5.80;;;11.00;99.90;;;;;;4985464;28;20625;-73
2022/11/22 12:07:36;;;;;;;6.10;5.60;;;11.20;99.90;;;;;;4983515;28;20193;-72
2022/11/22 12:10:41;;;;;;;5.85;5.35;;;11.70;99.90;;;;;;4983878;28;20548;-73
2022/11/22 12:13:23;;;;;;;6.13;5.65;;;12.10;99.90;;;;;;4986906;28;20178;-76
2022/11/22 12:15:57;;;;;;;5.80;5.28;;;12.30;99.90;;;;;;4981769;28;20206;-76
2022/11/22 12:18:54;;;;;;;6.85;6.00;;;12.30;99.90;;;;;;4986468;28;20174;-76
2022/11/22 12:21:42;;;;;;;5.70;5.25;;;12.00;99.90;;;;;;4986204;28;20232;-76
2022/11/22 12:24:49;;;;;;;6.53;5.93;;;11.40;99.90;;;;;;4990543;28;20205;-75
2022/11/22 12:27:15;;;;;;;7.10;6.32;;;10.90;99.90;;;;;;4925654;28;20232;-76
2022/11/22 12:29:45;;;;;;;6.93;6.22;;;10.60;99.90;;;;;;4979097;28;20174;-76
2022/11/22 12:32:19;;;;;;;6.53;5.93;;;10.20;99.90;;;;;;4983170;28;20181;-75
2022/11/22 12:35:03;;;;;;;6.10;5.60;;;10.00;99.90;;;;;;4982656;28;20548;-76
2022/11/22 12:37:38;;;;;;;7.10;6.30;;;9.90;99.90;;;;;;4981514;28;20181;-75
2022/11/22 12:40:13;;;;;;;6.55;6.03;;;10.00;99.90;;;;;;4985092;28;20580;-76
2022/11/22 12:43:15;;;;;;;7.07;6.40;;;10.20;99.90;;;;;;4978034;28;20200;-76
2022/11/22 12:45:45;;;;;;;6.40;5.88;;;10.60;99.90;;;;;;4977259;28;20217;-76
2022/11/22 12:48:32;;;;;;;7.28;5.43;;;10.90;99.90;;;;;;4982637;28;20178;-75
2022/11/22 12:51:06;;;;;;;7.38;6.68;;;11.00;99.90;;;;;;4984179;28;20182;-75
2022/11/22 12:53:38;;;;;;;7.18;6.53;;;10.90;99.90;;;;;;4982548;28;20256;-76
2022/11/22 12:56:24;;;;;;;6.75;6.03;;;10.70;99.90;;;;;;4982220;28;20564;-76
2022/11/22 12:59:14;;;;;;;6.80;6.30;;;10.70;99.90;;;;;;4982038;28;20186;-76
2022/11/22 13:01:51;;;;;;;7.22;6.18;;;10.60;99.90;;;;;;4982488;28;20660;-76
2022/11/22 13:04:41;;;;;;;5.82;5.43;;;10.80;99.90;;;;;;4985501;28;20525;-75
2022/11/22 13:07:16;;;;;;;6.45;5.82;;;10.80;99.90;;;;;;4984834;28;20186;-76
2022/11/22 13:09:55;;;;;;;8.50;6.32;;;10.80;99.90;;;;;;4983909;28;20223;-76
2022/11/22 13:12:32;;;;;;;7.30;6.70;;;11.10;99.90;;;;;;4978889;28;20247;-76
2022/11/22 13:14:59;;;;;;;6.65;5.93;;;11.60;99.90;;;;;;4984026;28;20256;-76
2022/11/22 13:17:28;;;;;;;8.00;6.88;;;12.10;99.90;;;;;;4990629;28;20181;-75
2022/11/22 13:19:59;;;;;;;6.90;6.28;;;12.70;99.90;;;;;;4992292;28;20181;-75
2022/11/22 13:22:24;;;;;;;6.82;6.25;;;12.90;99.90;;;;;;4988299;28;20171;-76